sensor_id;sensor_type;location;lat;lon;timestamp;temperature;humidity
18506;DHT22;9382;53.242;10.438;2022-08-21T00:01:48;13.10;99.90
18506;DHT22;9382;53.242;10.438;2022-08-21T00:04:16;13.10;99.90
18506;DHT22;9382;53.242;10.438;2022-08-21T00:06:43;13.10;99.90
18506;DHT22;9382;53.242;10.438;2022-08-21T00:09:10;13.00;99.90
18506;DHT22;9382;53.242;10.438;2022-08-21T00:11:38;13.00;99.90
18506;DHT22;9382;53.242;10.438;2022-08-21T00:14:07;12.90;99.90
18506;DHT22;9382;53.242;10.438;2022-08-21T00:16:34;12.90;99.90
18506;DHT22;9382;53.242;10.438;2022-08-21T00:19:01;12.90;99.90
18506;DHT22;9382;53.242;10.438;2022-08-21T00:21:29;12.90;99.90
18506;DHT22;9382;53.242;10.438;2022-08-21T00:23:56;12.90;99.90
18506;DHT22;9382;53.242;10.438;2022-08-21T00:26:23;12.90;99.90
18506;DHT22;9382;53.242;10.438;2022-08-21T00:28:50;12.80;99.90
18506;DHT22;9382;53.242;10.438;2022-08-21T00:31:17;12.80;99.90
18506;DHT22;9382;53.242;10.438;2022-08-21T00:33:45;12.80;99.90
18506;DHT22;9382;53.242;10.438;2022-08-21T00:36:12;12.80;99.90
18506;DHT22;9382;53.242;10.438;2022-08-21T00:38:40;12.70;99.90
18506;DHT22;9382;53.242;10.438;2022-08-21T00:41:08;12.70;99.90
18506;DHT22;9382;53.242;10.438;2022-08-21T00:43:38;12.60;99.90
18506;DHT22;9382;53.242;10.438;2022-08-21T00:46:06;12.60;99.90
18506;DHT22;9382;53.242;10.438;2022-08-21T00:48:33;12.60;99.90
18506;DHT22;9382;53.242;10.438;2022-08-21T00:51:05;12.50;99.90
18506;DHT22;9382;53.242;10.438;2022-08-21T00:53:35;12.50;99.90
18506;DHT22;9382;53.242;10.438;2022-08-21T00:56:08;12.50;99.90
18506;DHT22;9382;53.242;10.438;2022-08-21T00:58:36;12.50;99.90
18506;DHT22;9382;53.242;10.438;2022-08-21T01:01:05;12.50;99.90
18506;DHT22;9382;53.242;10.438;2022-08-21T01:03:33;12.40;99.90
18506;DHT22;9382;53.242;10.438;2022-08-21T01:06:00;12.40;99.90
18506;DHT22;9382;53.242;10.438;2022-08-21T01:08:28;12.40;99.90
18506;DHT22;9382;53.242;10.438;2022-08-21T01:10:56;12.30;99.90
18506;DHT22;9382;53.242;10.438;2022-08-21T01:13:26;12.40;99.90
18506;DHT22;9382;53.242;10.438;2022-08-21T01:15:58;12.30;99.90
18506;DHT22;9382;53.242;10.438;2022-08-21T01:18:26;12.30;99.90
18506;DHT22;9382;53.242;10.438;2022-08-21T01:21:06;12.30;99.90
18506;DHT22;9382;53.242;10.438;2022-08-21T01:23:34;12.30;99.90
18506;DHT22;9382;53.242;10.438;2022-08-21T01:26:01;12.30;99.90
18506;DHT22;9382;53.242;10.438;2022-08-21T01:28:31;12.20;99.90
18506;DHT22;9382;53.242;10.438;2022-08-21T01:31:01;12.20;99.90
18506;DHT22;9382;53.242;10.438;2022-08-21T01:33:28;12.20;99.90
18506;DHT22;9382;53.242;10.438;2022-08-21T01:35:54;12.20;99.90
18506;DHT22;9382;53.242;10.438;2022-08-21T01:38:23;12.20;99.90
18506;DHT22;9382;53.242;10.438;2022-08-21T01:40:49;12.20;99.90
18506;DHT22;9382;53.242;10.438;2022-08-21T01:43:16;12.20;99.90
18506;DHT22;9382;53.242;10.438;2022-08-21T01:45:43;12.10;99.90
18506;DHT22;9382;53.242;10.438;2022-08-21T01:48:10;12.10;99.90
18506;DHT22;9382;53.242;10.438;2022-08-21T01:50:36;12.10;99.90
18506;DHT22;9382;53.242;10.438;2022-08-21T01:53:04;12.10;99.90
18506;DHT22;9382;53.242;10.438;2022-08-21T01:55:32;12.10;99.90
18506;DHT22;9382;53.242;10.438;2022-08-21T01:57:59;12.00;99.90
18506;DHT22;9382;53.242;10.438;2022-08-21T02:00:26;12.00;99.90
18506;DHT22;9382;53.242;10.438;2022-08-21T02:02:53;12.00;99.90
18506;DHT22;9382;53.242;10.438;2022-08-21T02:05:21;12.00;99.90
18506;DHT22;9382;53.242;10.438;2022-08-21T02:07:50;11.90;99.90
18506;DHT22;9382;53.242;10.438;2022-08-21T02:10:22;11.90;99.90
18506;DHT22;9382;53.242;10.438;2022-08-21T02:12:50;11.90;99.90
18506;DHT22;9382;53.242;10.438;2022-08-21T02:15:17;11.90;99.90
18506;DHT22;9382;53.242;10.438;2022-08-21T02:17:46;11.90;99.90
18506;DHT22;9382;53.242;10.438;2022-08-21T02:20:17;11.90;99.90
18506;DHT22;9382;53.242;10.438;2022-08-21T02:22:44;11.90;99.90
18506;DHT22;9382;53.242;10.438;2022-08-21T02:25:11;12.00;99.90
18506;DHT22;9382;53.242;10.438;2022-08-21T02:27:39;12.00;99.90
18506;DHT22;9382;53.242;10.438;2022-08-21T02:30:11;12.00;99.90
18506;DHT22;9382;53.242;10.438;2022-08-21T02:32:39;12.00;99.90
18506;DHT22;9382;53.242;10.438;2022-08-21T02:35:08;11.90;99.90
18506;DHT22;9382;53.242;10.438;2022-08-21T02:37:42;11.90;99.90
18506;DHT22;9382;53.242;10.438;2022-08-21T02:40:10;11.90;99.90
18506;DHT22;9382;53.242;10.438;2022-08-21T02:42:37;11.80;99.90
18506;DHT22;9382;53.242;10.438;2022-08-21T02:45:04;11.80;99.90
18506;DHT22;9382;53.242;10.438;2022-08-21T02:47:33;11.80;99.90
18506;DHT22;9382;53.242;10.438;2022-08-21T02:49:59;11.70;99.90
18506;DHT22;9382;53.242;10.438;2022-08-21T02:52:26;11.70;99.90
18506;DHT22;9382;53.242;10.438;2022-08-21T02:54:53;11.70;99.90
18506;DHT22;9382;53.242;10.438;2022-08-21T02:57:19;11.70;99.90
18506;DHT22;9382;53.242;10.438;2022-08-21T02:59:46;11.70;99.90
18506;DHT22;9382;53.242;10.438;2022-08-21T03:02:13;11.70;99.90
18506;DHT22;9382;53.242;10.438;2022-08-21T03:04:41;11.70;99.90
18506;DHT22;9382;53.242;10.438;2022-08-21T03:07:08;11.70;99.90
18506;DHT22;9382;53.242;10.438;2022-08-21T03:09:34;11.70;99.90
18506;DHT22;9382;53.242;10.438;2022-08-21T03:12:02;11.70;99.90
18506;DHT22;9382;53.242;10.438;2022-08-21T03:14:29;11.70;99.90
18506;DHT22;9382;53.242;10.438;2022-08-21T03:16:55;11.70;99.90
18506;DHT22;9382;53.242;10.438;2022-08-21T03:19:22;11.70;99.90
18506;DHT22;9382;53.242;10.438;2022-08-21T03:21:50;11.80;99.90
18506;DHT22;9382;53.242;10.438;2022-08-21T03:24:17;11.80;99.90
18506;DHT22;9382;53.242;10.438;2022-08-21T03:26:43;11.80;99.90
18506;DHT22;9382;53.242;10.438;2022-08-21T03:29:10;11.90;99.90
18506;DHT22;9382;53.242;10.438;2022-08-21T03:31:37;11.90;99.90
18506;DHT22;9382;53.242;10.438;2022-08-21T03:34:04;11.90;99.90
18506;DHT22;9382;53.242;10.438;2022-08-21T03:36:31;11.90;99.90
18506;DHT22;9382;53.242;10.438;2022-08-21T03:38:59;11.80;99.90
18506;DHT22;9382;53.242;10.438;2022-08-21T03:41:25;11.70;99.90
18506;DHT22;9382;53.242;10.438;2022-08-21T03:43:52;11.70;99.90
18506;DHT22;9382;53.242;10.438;2022-08-21T03:46:19;11.70;99.90
18506;DHT22;9382;53.242;10.438;2022-08-21T03:48:46;11.60;99.90
18506;DHT22;9382;53.242;10.438;2022-08-21T03:51:13;11.70;99.90
18506;DHT22;9382;53.242;10.438;2022-08-21T03:53:40;11.70;99.90
18506;DHT22;9382;53.242;10.438;2022-08-21T03:56:08;11.60;99.90
18506;DHT22;9382;53.242;10.438;2022-08-21T03:58:35;11.60;99.90
18506;DHT22;9382;53.242;10.438;2022-08-21T04:01:05;11.60;99.90
18506;DHT22;9382;53.242;10.438;2022-08-21T04:03:34;11.60;99.90
18506;DHT22;9382;53.242;10.438;2022-08-21T04:06:01;11.70;99.90
18506;DHT22;9382;53.242;10.438;2022-08-21T04:08:28;11.60;99.90
18506;DHT22;9382;53.242;10.438;2022-08-21T04:10:56;11.70;99.90
18506;DHT22;9382;53.242;10.438;2022-08-21T04:13:26;11.60;99.90
18506;DHT22;9382;53.242;10.438;2022-08-21T04:15:53;11.60;99.90
18506;DHT22;9382;53.242;10.438;2022-08-21T04:18:20;11.60;99.90
18506;DHT22;9382;53.242;10.438;2022-08-21T04:20:50;11.60;99.90
18506;DHT22;9382;53.242;10.438;2022-08-21T04:23:18;11.60;99.90
18506;DHT22;9382;53.242;10.438;2022-08-21T04:25:45;11.50;99.90
18506;DHT22;9382;53.242;10.438;2022-08-21T04:28:11;11.50;99.90
18506;DHT22;9382;53.242;10.438;2022-08-21T04:30:40;11.50;99.90
18506;DHT22;9382;53.242;10.438;2022-08-21T04:33:06;11.50;99.90
18506;DHT22;9382;53.242;10.438;2022-08-21T04:35:33;11.50;99.90
18506;DHT22;9382;53.242;10.438;2022-08-21T04:38:00;11.50;99.90
18506;DHT22;9382;53.242;10.438;2022-08-21T04:40:28;11.50;99.90
18506;DHT22;9382;53.242;10.438;2022-08-21T04:42:56;11.50;99.90
18506;DHT22;9382;53.242;10.438;2022-08-21T04:45:26;11.50;99.90
18506;DHT22;9382;53.242;10.438;2022-08-21T04:47:57;11.50;99.90
18506;DHT22;9382;53.242;10.438;2022-08-21T04:50:29;11.50;99.90
18506;DHT22;9382;53.242;10.438;2022-08-21T04:52:56;11.50;99.90
18506;DHT22;9382;53.242;10.438;2022-08-21T04:55:24;11.50;99.90
18506;DHT22;9382;53.242;10.438;2022-08-21T04:57:53;11.50;99.90
18506;DHT22;9382;53.242;10.438;2022-08-21T05:00:21;11.60;99.90
18506;DHT22;9382;53.242;10.438;2022-08-21T05:02:50;11.60;99.90
18506;DHT22;9382;53.242;10.438;2022-08-21T05:05:21;11.70;99.90
18506;DHT22;9382;53.242;10.438;2022-08-21T05:07:48;11.70;99.90
18506;DHT22;9382;53.242;10.438;2022-08-21T05:10:15;11.70;99.90
18506;DHT22;9382;53.242;10.438;2022-08-21T05:12:43;11.70;99.90
18506;DHT22;9382;53.242;10.438;2022-08-21T05:15:11;11.80;99.90
18506;DHT22;9382;53.242;10.438;2022-08-21T05:17:38;11.80;99.90
18506;DHT22;9382;53.242;10.438;2022-08-21T05:20:05;11.80;99.90
18506;DHT22;9382;53.242;10.438;2022-08-21T05:22:33;11.90;99.90
18506;DHT22;9382;53.242;10.438;2022-08-21T05:25:00;11.90;99.90
18506;DHT22;9382;53.242;10.438;2022-08-21T05:27:27;12.00;99.90
18506;DHT22;9382;53.242;10.438;2022-08-21T05:29:55;12.10;99.90
18506;DHT22;9382;53.242;10.438;2022-08-21T05:32:22;12.10;99.90
18506;DHT22;9382;53.242;10.438;2022-08-21T05:34:49;12.20;99.90
18506;DHT22;9382;53.242;10.438;2022-08-21T05:37:16;12.30;99.90
18506;DHT22;9382;53.242;10.438;2022-08-21T05:39:44;12.40;99.90
18506;DHT22;9382;53.242;10.438;2022-08-21T05:42:11;12.50;99.90
18506;DHT22;9382;53.242;10.438;2022-08-21T05:44:37;12.60;99.90
18506;DHT22;9382;53.242;10.438;2022-08-21T05:47:05;12.70;99.90
18506;DHT22;9382;53.242;10.438;2022-08-21T05:49:32;12.80;99.90
18506;DHT22;9382;53.242;10.438;2022-08-21T05:51:59;12.90;99.90
18506;DHT22;9382;53.242;10.438;2022-08-21T05:54:27;13.00;99.90
18506;DHT22;9382;53.242;10.438;2022-08-21T05:56:55;13.10;99.90
18506;DHT22;9382;53.242;10.438;2022-08-21T05:59:22;13.40;99.90
18506;DHT22;9382;53.242;10.438;2022-08-21T06:01:49;13.50;99.90
18506;DHT22;9382;53.242;10.438;2022-08-21T06:04:18;13.80;99.90
18506;DHT22;9382;53.242;10.438;2022-08-21T06:06:44;14.00;99.90
18506;DHT22;9382;53.242;10.438;2022-08-21T06:09:12;14.20;99.90
18506;DHT22;9382;53.242;10.438;2022-08-21T06:11:39;14.30;99.90
18506;DHT22;9382;53.242;10.438;2022-08-21T06:14:07;14.40;99.90
18506;DHT22;9382;53.242;10.438;2022-08-21T06:16:34;14.60;99.90
18506;DHT22;9382;53.242;10.438;2022-08-21T06:19:00;14.70;99.90
18506;DHT22;9382;53.242;10.438;2022-08-21T06:21:27;14.90;99.90
18506;DHT22;9382;53.242;10.438;2022-08-21T06:23:54;15.00;99.90
18506;DHT22;9382;53.242;10.438;2022-08-21T06:26:21;15.20;99.90
18506;DHT22;9382;53.242;10.438;2022-08-21T06:28:49;15.30;99.90
18506;DHT22;9382;53.242;10.438;2022-08-21T06:31:19;15.50;99.90
18506;DHT22;9382;53.242;10.438;2022-08-21T06:33:46;15.70;99.90
18506;DHT22;9382;53.242;10.438;2022-08-21T06:36:13;15.80;99.90
18506;DHT22;9382;53.242;10.438;2022-08-21T06:38:41;16.10;99.90
18506;DHT22;9382;53.242;10.438;2022-08-21T06:41:08;16.20;99.90
18506;DHT22;9382;53.242;10.438;2022-08-21T06:43:35;16.40;99.90
18506;DHT22;9382;53.242;10.438;2022-08-21T06:46:02;16.50;99.90
18506;DHT22;9382;53.242;10.438;2022-08-21T06:48:30;16.60;99.90
18506;DHT22;9382;53.242;10.438;2022-08-21T06:50:58;16.60;99.90
18506;DHT22;9382;53.242;10.438;2022-08-21T06:53:25;16.70;99.90
18506;DHT22;9382;53.242;10.438;2022-08-21T06:55:52;16.70;99.90
18506;DHT22;9382;53.242;10.438;2022-08-21T06:58:19;16.80;99.90
18506;DHT22;9382;53.242;10.438;2022-08-21T07:00:48;16.90;99.90
18506;DHT22;9382;53.242;10.438;2022-08-21T07:03:18;16.90;99.90
18506;DHT22;9382;53.242;10.438;2022-08-21T07:05:46;16.90;99.90
18506;DHT22;9382;53.242;10.438;2022-08-21T07:08:13;16.90;99.90
18506;DHT22;9382;53.242;10.438;2022-08-21T07:10:40;16.90;99.90
18506;DHT22;9382;53.242;10.438;2022-08-21T07:13:06;17.20;99.90
18506;DHT22;9382;53.242;10.438;2022-08-21T07:15:33;17.50;99.90
18506;DHT22;9382;53.242;10.438;2022-08-21T07:18:00;17.80;99.90
18506;DHT22;9382;53.242;10.438;2022-08-21T07:20:28;18.20;99.90
18506;DHT22;9382;53.242;10.438;2022-08-21T07:22:59;18.40;99.90
18506;DHT22;9382;53.242;10.438;2022-08-21T07:25:27;18.60;99.90
18506;DHT22;9382;53.242;10.438;2022-08-21T07:27:54;18.70;99.90
18506;DHT22;9382;53.242;10.438;2022-08-21T07:30:21;18.90;99.90
18506;DHT22;9382;53.242;10.438;2022-08-21T07:32:50;19.00;99.90
18506;DHT22;9382;53.242;10.438;2022-08-21T07:35:18;19.10;99.90
18506;DHT22;9382;53.242;10.438;2022-08-21T07:37:45;19.10;99.90
18506;DHT22;9382;53.242;10.438;2022-08-21T07:40:14;19.20;99.90
18506;DHT22;9382;53.242;10.438;2022-08-21T07:42:41;19.30;99.90
18506;DHT22;9382;53.242;10.438;2022-08-21T07:45:08;19.50;99.90
18506;DHT22;9382;53.242;10.438;2022-08-21T07:47:35;19.80;99.90
18506;DHT22;9382;53.242;10.438;2022-08-21T07:50:05;20.10;99.90
18506;DHT22;9382;53.242;10.438;2022-08-21T07:52:32;20.40;99.90
18506;DHT22;9382;53.242;10.438;2022-08-21T07:54:59;20.70;99.90
18506;DHT22;9382;53.242;10.438;2022-08-21T07:57:27;21.00;99.90
18506;DHT22;9382;53.242;10.438;2022-08-21T07:59:54;21.10;99.90
18506;DHT22;9382;53.242;10.438;2022-08-21T08:02:24;21.00;99.90
18506;DHT22;9382;53.242;10.438;2022-08-21T08:04:51;20.90;99.90
18506;DHT22;9382;53.242;10.438;2022-08-21T08:07:18;20.80;99.90
18506;DHT22;9382;53.242;10.438;2022-08-21T08:09:45;20.80;99.90
18506;DHT22;9382;53.242;10.438;2022-08-21T08:12:12;20.90;99.90
18506;DHT22;9382;53.242;10.438;2022-08-21T08:14:40;21.10;99.90
18506;DHT22;9382;53.242;10.438;2022-08-21T08:17:07;21.30;99.90
18506;DHT22;9382;53.242;10.438;2022-08-21T08:19:33;21.50;99.90
18506;DHT22;9382;53.242;10.438;2022-08-21T08:22:00;21.70;99.90
18506;DHT22;9382;53.242;10.438;2022-08-21T08:24:27;22.00;99.90
18506;DHT22;9382;53.242;10.438;2022-08-21T08:26:54;22.30;99.90
18506;DHT22;9382;53.242;10.438;2022-08-21T08:29:22;22.40;99.90
18506;DHT22;9382;53.242;10.438;2022-08-21T08:31:50;22.60;99.90
18506;DHT22;9382;53.242;10.438;2022-08-21T08:34:17;22.80;99.90
18506;DHT22;9382;53.242;10.438;2022-08-21T08:36:45;22.70;99.90
18506;DHT22;9382;53.242;10.438;2022-08-21T08:39:11;23.00;99.90
18506;DHT22;9382;53.242;10.438;2022-08-21T08:41:39;23.20;99.90
18506;DHT22;9382;53.242;10.438;2022-08-21T08:44:07;23.40;99.90
18506;DHT22;9382;53.242;10.438;2022-08-21T08:46:38;23.60;99.90
18506;DHT22;9382;53.242;10.438;2022-08-21T08:49:11;23.60;99.90
18506;DHT22;9382;53.242;10.438;2022-08-21T08:51:43;23.40;99.90
18506;DHT22;9382;53.242;10.438;2022-08-21T08:54:15;23.40;99.90
18506;DHT22;9382;53.242;10.438;2022-08-21T08:56:44;23.50;99.90
18506;DHT22;9382;53.242;10.438;2022-08-21T08:59:15;23.60;99.90
18506;DHT22;9382;53.242;10.438;2022-08-21T09:01:43;23.50;99.90
18506;DHT22;9382;53.242;10.438;2022-08-21T09:04:12;23.50;99.90
18506;DHT22;9382;53.242;10.438;2022-08-21T09:06:58;23.70;99.90
18506;DHT22;9382;53.242;10.438;2022-08-21T09:09:38;24.00;99.90
18506;DHT22;9382;53.242;10.438;2022-08-21T09:12:14;24.20;99.90
18506;DHT22;9382;53.242;10.438;2022-08-21T09:14:50;24.50;99.90
18506;DHT22;9382;53.242;10.438;2022-08-21T09:17:32;24.40;99.90
18506;DHT22;9382;53.242;10.438;2022-08-21T09:20:12;24.20;99.90
18506;DHT22;9382;53.242;10.438;2022-08-21T09:22:49;24.10;99.90
18506;DHT22;9382;53.242;10.438;2022-08-21T09:25:25;24.20;99.90
18506;DHT22;9382;53.242;10.438;2022-08-21T09:27:52;24.70;99.90
18506;DHT22;9382;53.242;10.438;2022-08-21T09:30:24;25.20;99.90
18506;DHT22;9382;53.242;10.438;2022-08-21T09:32:51;25.40;99.90
18506;DHT22;9382;53.242;10.438;2022-08-21T09:35:21;25.20;99.90
18506;DHT22;9382;53.242;10.438;2022-08-21T09:37:52;24.90;99.90
18506;DHT22;9382;53.242;10.438;2022-08-21T09:40:27;24.70;99.90
18506;DHT22;9382;53.242;10.438;2022-08-21T09:42:58;24.50;99.90
18506;DHT22;9382;53.242;10.438;2022-08-21T09:45:25;24.30;99.90
18506;DHT22;9382;53.242;10.438;2022-08-21T09:47:51;24.20;99.90
18506;DHT22;9382;53.242;10.438;2022-08-21T09:50:22;24.20;99.90
18506;DHT22;9382;53.242;10.438;2022-08-21T09:52:52;24.30;99.90
18506;DHT22;9382;53.242;10.438;2022-08-21T09:55:27;24.40;99.90
18506;DHT22;9382;53.242;10.438;2022-08-21T09:58:14;24.70;99.90
18506;DHT22;9382;53.242;10.438;2022-08-21T10:00:41;25.10;99.90
18506;DHT22;9382;53.242;10.438;2022-08-21T10:03:15;25.40;99.90
18506;DHT22;9382;53.242;10.438;2022-08-21T10:05:54;25.90;99.90
18506;DHT22;9382;53.242;10.438;2022-08-21T10:08:23;26.20;99.90
18506;DHT22;9382;53.242;10.438;2022-08-21T10:10:53;26.10;99.90
18506;DHT22;9382;53.242;10.438;2022-08-21T10:13:27;26.10;99.90
18506;DHT22;9382;53.242;10.438;2022-08-21T10:16:05;26.10;99.90
18506;DHT22;9382;53.242;10.438;2022-08-21T10:18:38;26.10;99.90
18506;DHT22;9382;53.242;10.438;2022-08-21T10:21:14;26.10;99.90
18506;DHT22;9382;53.242;10.438;2022-08-21T10:23:56;26.30;99.90
18506;DHT22;9382;53.242;10.438;2022-08-21T10:26:35;26.80;99.90
18506;DHT22;9382;53.242;10.438;2022-08-21T10:29:08;27.10;99.90
18506;DHT22;9382;53.242;10.438;2022-08-21T10:31:46;27.30;99.90
18506;DHT22;9382;53.242;10.438;2022-08-21T10:34:27;27.30;99.90
18506;DHT22;9382;53.242;10.438;2022-08-21T10:37:05;27.50;99.90
18506;DHT22;9382;53.242;10.438;2022-08-21T10:39:35;27.70;99.90
18506;DHT22;9382;53.242;10.438;2022-08-21T10:42:17;28.00;99.90
18506;DHT22;9382;53.242;10.438;2022-08-21T10:44:57;28.20;99.90
18506;DHT22;9382;53.242;10.438;2022-08-21T10:47:30;28.30;99.90
18506;DHT22;9382;53.242;10.438;2022-08-21T10:50:04;28.60;99.90
18506;DHT22;9382;53.242;10.438;2022-08-21T10:52:49;28.10;99.90
18506;DHT22;9382;53.242;10.438;2022-08-21T10:55:21;27.50;99.90
18506;DHT22;9382;53.242;10.438;2022-08-21T10:57:51;26.90;99.90
18506;DHT22;9382;53.242;10.438;2022-08-21T11:00:22;26.80;99.90
18506;DHT22;9382;53.242;10.438;2022-08-21T11:02:55;27.20;99.90
18506;DHT22;9382;53.242;10.438;2022-08-21T11:05:27;27.50;99.90
18506;DHT22;9382;53.242;10.438;2022-08-21T11:08:02;27.60;99.90
18506;DHT22;9382;53.242;10.438;2022-08-21T11:10:33;27.90;99.90
18506;DHT22;9382;53.242;10.438;2022-08-21T11:13:06;28.40;99.90
18506;DHT22;9382;53.242;10.438;2022-08-21T11:15:43;29.00;99.90
18506;DHT22;9382;53.242;10.438;2022-08-21T11:18:22;29.10;99.90
18506;DHT22;9382;53.242;10.438;2022-08-21T11:21:06;28.50;99.90
18506;DHT22;9382;53.242;10.438;2022-08-21T11:23:43;27.70;99.90
18506;DHT22;9382;53.242;10.438;2022-08-21T11:26:15;27.20;99.90
18506;DHT22;9382;53.242;10.438;2022-08-21T11:28:50;26.80;99.90
18506;DHT22;9382;53.242;10.438;2022-08-21T11:31:31;26.50;99.90
18506;DHT22;9382;53.242;10.438;2022-08-21T11:34:11;27.10;99.90
18506;DHT22;9382;53.242;10.438;2022-08-21T11:36:44;27.70;99.90
18506;DHT22;9382;53.242;10.438;2022-08-21T11:39:22;27.70;99.90
18506;DHT22;9382;53.242;10.438;2022-08-21T11:41:57;27.30;99.90
18506;DHT22;9382;53.242;10.438;2022-08-21T11:44:34;27.60;99.90
18506;DHT22;9382;53.242;10.438;2022-08-21T11:47:11;28.30;99.90
18506;DHT22;9382;53.242;10.438;2022-08-21T11:49:58;28.60;99.90
18506;DHT22;9382;53.242;10.438;2022-08-21T11:52:31;28.40;99.90
18506;DHT22;9382;53.242;10.438;2022-08-21T11:55:06;27.80;99.90
18506;DHT22;9382;53.242;10.438;2022-08-21T11:57:38;27.60;99.90
18506;DHT22;9382;53.242;10.438;2022-08-21T12:00:11;27.60;99.90
18506;DHT22;9382;53.242;10.438;2022-08-21T12:02:42;27.40;99.90
18506;DHT22;9382;53.242;10.438;2022-08-21T12:05:22;27.10;99.90
18506;DHT22;9382;53.242;10.438;2022-08-21T12:08:00;27.00;99.90
18506;DHT22;9382;53.242;10.438;2022-08-21T12:10:33;27.20;99.90
18506;DHT22;9382;53.242;10.438;2022-08-21T12:13:07;27.10;99.90
18506;DHT22;9382;53.242;10.438;2022-08-21T12:15:35;27.70;99.90
18506;DHT22;9382;53.242;10.438;2022-08-21T12:18:04;28.70;99.90
18506;DHT22;9382;53.242;10.438;2022-08-21T12:20:39;30.00;99.90
18506;DHT22;9382;53.242;10.438;2022-08-21T12:23:18;31.40;99.90
18506;DHT22;9382;53.242;10.438;2022-08-21T12:26:00;32.00;92.80
18506;DHT22;9382;53.242;10.438;2022-08-21T12:28:28;32.00;96.90
18506;DHT22;9382;53.242;10.438;2022-08-21T12:30:56;32.80;93.00
18506;DHT22;9382;53.242;10.438;2022-08-21T12:33:26;33.00;90.40
18506;DHT22;9382;53.242;10.438;2022-08-21T12:36:02;33.30;91.60
18506;DHT22;9382;53.242;10.438;2022-08-21T12:38:34;33.20;85.70
18506;DHT22;9382;53.242;10.438;2022-08-21T12:41:15;32.30;85.90
18506;DHT22;9382;53.242;10.438;2022-08-21T12:43:47;32.30;87.30
18506;DHT22;9382;53.242;10.438;2022-08-21T12:46:17;31.40;86.40
18506;DHT22;9382;53.242;10.438;2022-08-21T12:48:49;30.40;88.40
18506;DHT22;9382;53.242;10.438;2022-08-21T12:51:21;31.40;94.00
18506;DHT22;9382;53.242;10.438;2022-08-21T12:53:51;33.10;86.30
18506;DHT22;9382;53.242;10.438;2022-08-21T12:56:21;34.00;82.70
18506;DHT22;9382;53.242;10.438;2022-08-21T12:58:50;34.40;79.00
18506;DHT22;9382;53.242;10.438;2022-08-21T13:01:22;34.50;81.00
18506;DHT22;9382;53.242;10.438;2022-08-21T13:03:51;35.20;82.40
18506;DHT22;9382;53.242;10.438;2022-08-21T13:06:20;35.10;76.90
18506;DHT22;9382;53.242;10.438;2022-08-21T13:08:51;35.40;77.00
18506;DHT22;9382;53.242;10.438;2022-08-21T13:11:22;35.80;77.00
18506;DHT22;9382;53.242;10.438;2022-08-21T13:13:49;36.20;74.80
18506;DHT22;9382;53.242;10.438;2022-08-21T13:16:20;35.00;78.00
18506;DHT22;9382;53.242;10.438;2022-08-21T13:18:54;35.20;76.70
18506;DHT22;9382;53.242;10.438;2022-08-21T13:21:21;35.60;74.30
18506;DHT22;9382;53.242;10.438;2022-08-21T13:23:53;36.60;80.80
18506;DHT22;9382;53.242;10.438;2022-08-21T13:26:22;37.30;77.60
18506;DHT22;9382;53.242;10.438;2022-08-21T13:28:49;37.20;78.00
18506;DHT22;9382;53.242;10.438;2022-08-21T13:31:18;37.60;69.30
18506;DHT22;9382;53.242;10.438;2022-08-21T13:33:48;37.30;69.60
18506;DHT22;9382;53.242;10.438;2022-08-21T13:36:18;37.10;67.10
18506;DHT22;9382;53.242;10.438;2022-08-21T13:38:46;36.90;70.10
18506;DHT22;9382;53.242;10.438;2022-08-21T13:41:21;37.60;70.30
18506;DHT22;9382;53.242;10.438;2022-08-21T13:43:50;37.60;69.00
18506;DHT22;9382;53.242;10.438;2022-08-21T13:46:18;37.80;67.30
18506;DHT22;9382;53.242;10.438;2022-08-21T13:48:45;37.90;64.30
18506;DHT22;9382;53.242;10.438;2022-08-21T13:51:12;38.10;65.20
18506;DHT22;9382;53.242;10.438;2022-08-21T13:53:47;38.00;68.90
18506;DHT22;9382;53.242;10.438;2022-08-21T13:56:24;38.20;62.40
18506;DHT22;9382;53.242;10.438;2022-08-21T13:58:52;38.30;62.90
18506;DHT22;9382;53.242;10.438;2022-08-21T14:01:22;38.20;65.70
18506;DHT22;9382;53.242;10.438;2022-08-21T14:03:54;38.80;64.30
18506;DHT22;9382;53.242;10.438;2022-08-21T14:06:24;39.60;62.70
18506;DHT22;9382;53.242;10.438;2022-08-21T14:08:55;39.60;63.10
18506;DHT22;9382;53.242;10.438;2022-08-21T14:11:24;38.90;59.50
18506;DHT22;9382;53.242;10.438;2022-08-21T14:13:58;37.70;63.70
18506;DHT22;9382;53.242;10.438;2022-08-21T14:16:27;37.30;63.20
18506;DHT22;9382;53.242;10.438;2022-08-21T14:19:10;37.10;63.30
18506;DHT22;9382;53.242;10.438;2022-08-21T14:21:40;35.60;65.90
18506;DHT22;9382;53.242;10.438;2022-08-21T14:24:11;33.90;70.10
18506;DHT22;9382;53.242;10.438;2022-08-21T14:26:46;32.80;69.70
18506;DHT22;9382;53.242;10.438;2022-08-21T14:29:16;34.00;71.00
18506;DHT22;9382;53.242;10.438;2022-08-21T14:31:49;35.20;70.90
18506;DHT22;9382;53.242;10.438;2022-08-21T14:34:16;35.30;67.60
18506;DHT22;9382;53.242;10.438;2022-08-21T14:36:43;35.40;69.40
18506;DHT22;9382;53.242;10.438;2022-08-21T14:39:10;34.40;71.80
18506;DHT22;9382;53.242;10.438;2022-08-21T14:41:37;32.80;73.10
18506;DHT22;9382;53.242;10.438;2022-08-21T14:44:07;31.70;71.20
18506;DHT22;9382;53.242;10.438;2022-08-21T14:46:34;30.40;76.20
18506;DHT22;9382;53.242;10.438;2022-08-21T14:49:01;29.60;76.40
18506;DHT22;9382;53.242;10.438;2022-08-21T14:51:28;29.20;77.70
18506;DHT22;9382;53.242;10.438;2022-08-21T14:53:55;29.20;82.70
18506;DHT22;9382;53.242;10.438;2022-08-21T14:56:22;30.60;79.40
18506;DHT22;9382;53.242;10.438;2022-08-21T14:58:51;30.90;74.80
18506;DHT22;9382;53.242;10.438;2022-08-21T15:01:21;31.30;81.30
18506;DHT22;9382;53.242;10.438;2022-08-21T15:03:48;33.50;72.50
18506;DHT22;9382;53.242;10.438;2022-08-21T15:06:15;34.00;68.90
18506;DHT22;9382;53.242;10.438;2022-08-21T15:08:43;33.70;73.30
18506;DHT22;9382;53.242;10.438;2022-08-21T15:11:12;35.00;71.40
18506;DHT22;9382;53.242;10.438;2022-08-21T15:13:42;35.00;71.20
18506;DHT22;9382;53.242;10.438;2022-08-21T15:16:11;33.80;67.00
18506;DHT22;9382;53.242;10.438;2022-08-21T15:18:39;33.30;73.60
18506;DHT22;9382;53.242;10.438;2022-08-21T15:21:07;34.10;74.30
18506;DHT22;9382;53.242;10.438;2022-08-21T15:23:34;35.40;72.10
18506;DHT22;9382;53.242;10.438;2022-08-21T15:26:01;36.60;64.90
18506;DHT22;9382;53.242;10.438;2022-08-21T15:28:28;37.20;62.50
18506;DHT22;9382;53.242;10.438;2022-08-21T15:30:55;35.90;64.50
18506;DHT22;9382;53.242;10.438;2022-08-21T15:33:22;35.30;68.10
18506;DHT22;9382;53.242;10.438;2022-08-21T15:35:50;35.20;66.00
18506;DHT22;9382;53.242;10.438;2022-08-21T15:38:17;35.40;67.00
18506;DHT22;9382;53.242;10.438;2022-08-21T15:40:44;34.30;71.70
18506;DHT22;9382;53.242;10.438;2022-08-21T15:43:21;33.60;74.00
18506;DHT22;9382;53.242;10.438;2022-08-21T15:45:48;34.00;73.40